createdAt,value
2022-08-25T00:01:27.025Z,76.56
2022-08-25T00:04:03.289Z,76.41
2022-08-25T00:06:35.361Z,76.38
2022-08-25T00:09:08.501Z,76.39
2022-08-25T00:11:44.093Z,76.35
2022-08-25T00:14:19.244Z,76.32
2022-08-25T00:16:51.620Z,76.14
2022-08-25T00:19:28.976Z,76.13
2022-08-25T00:22:01.565Z,76.09
2022-08-25T00:24:33.430Z,75.93
2022-08-25T00:27:06.025Z,75.97
2022-08-25T00:29:38.505Z,76.02
2022-08-25T00:32:12.096Z,76.47
2022-08-25T00:34:43.919Z,76.25
2022-08-25T00:37:16.410Z,76.80
2022-08-25T00:39:48.756Z,76.70
2022-08-25T00:42:22.179Z,77.03
2022-08-25T00:44:54.366Z,76.96
2022-08-25T00:47:26.564Z,76.95
2022-08-25T00:50:02.670Z,76.97
2022-08-25T00:52:44.567Z,77.13
2022-08-25T00:55:20.000Z,77.13
2022-08-25T00:57:58.809Z,77.42
2022-08-25T01:00:34.913Z,77.28
2022-08-25T01:03:11.268Z,77.65
2022-08-25T01:05:44.752Z,77.72
2022-08-25T01:08:22.089Z,77.94
2022-08-25T01:10:54.279Z,78.34
2022-08-25T01:13:33.611Z,78.03
2022-08-25T01:16:06.324Z,78.69
2022-08-25T01:18:51.419Z,78.93
2022-08-25T01:21:27.250Z,79.45
2022-08-25T01:24:01.632Z,79.48
2022-08-25T01:26:35.868Z,78.93
2022-08-25T01:29:22.690Z,79.44
2022-08-25T01:31:58.046Z,79.39
2022-08-25T01:34:36.115Z,79.49
2022-08-25T01:37:08.300Z,79.09
2022-08-25T01:39:45.057Z,78.98
2022-08-25T01:42:25.642Z,78.80
2022-08-25T01:44:59.614Z,78.59
2022-08-25T01:47:32.063Z,78.23
2022-08-25T01:50:04.075Z,78.31
2022-08-25T01:52:39.031Z,78.05
2022-08-25T01:55:12.496Z,77.89
2022-08-25T01:57:44.510Z,78.01
2022-08-25T02:00:25.676Z,78.12
2022-08-25T02:02:57.628Z,78.26
2022-08-25T02:05:29.578Z,78.33
2022-08-25T02:08:05.150Z,78.43
2022-08-25T02:10:40.575Z,78.46
2022-08-25T02:13:12.953Z,78.46
2022-08-25T02:15:52.048Z,78.63
2022-08-25T02:18:24.121Z,79.19
2022-08-25T02:20:58.614Z,79.23
2022-08-25T02:23:30.569Z,79.18
2022-08-25T02:26:02.524Z,79.60
2022-08-25T02:28:34.467Z,79.60
2022-08-25T02:31:10.415Z,79.82
2022-08-25T02:33:42.421Z,79.80
2022-08-25T02:36:14.567Z,79.72
2022-08-25T02:38:46.644Z,79.67
2022-08-25T02:41:27.785Z,79.88
2022-08-25T02:44:05.052Z,79.70
2022-08-25T02:46:37.884Z,79.82
2022-08-25T02:49:09.828Z,79.94
2022-08-25T02:51:43.305Z,79.90
2022-08-25T02:54:15.056Z,80.18
2022-08-25T02:56:47.823Z,79.84
2022-08-25T02:59:19.954Z,80.15
2022-08-25T03:01:54.349Z,79.82
2022-08-25T03:04:26.272Z,80.27
2022-08-25T03:06:58.226Z,79.91
2022-08-25T03:09:30.451Z,80.59
2022-08-25T03:12:09.454Z,80.09
2022-08-25T03:14:42.130Z,79.90
2022-08-25T03:17:15.242Z,79.86
2022-08-25T03:19:47.144Z,79.84
2022-08-25T03:22:21.554Z,79.71
2022-08-25T03:25:13.362Z,80.03
2022-08-25T03:27:45.324Z,79.87
2022-08-25T03:30:17.688Z,80.02
2022-08-25T03:32:51.447Z,79.96
2022-08-25T03:35:23.612Z,80.01
2022-08-25T03:37:58.515Z,79.86
2022-08-25T03:40:30.586Z,80.15
2022-08-25T03:43:09.977Z,80.02
2022-08-25T03:45:45.156Z,80.14
2022-08-25T03:48:18.135Z,80.82
2022-08-25T03:50:54.509Z,80.54
2022-08-25T03:53:27.123Z,80.82
2022-08-25T03:55:59.008Z,80.83
2022-08-25T03:58:30.849Z,80.32
2022-08-25T04:01:02.735Z,80.51
2022-08-25T04:03:35.528Z,81.03
2022-08-25T04:06:10.386Z,81.23
2022-08-25T04:08:42.546Z,80.96
2022-08-25T04:11:18.026Z,80.92
2022-08-25T04:13:51.310Z,81.75
2022-08-25T04:16:25.418Z,81.75
2022-08-25T04:18:58.750Z,81.01
2022-08-25T04:21:31.539Z,81.03
2022-08-25T04:24:04.369Z,81.20
2022-08-25T04:26:38.395Z,81.03
2022-08-25T04:29:12.038Z,81.02
2022-08-25T04:31:47.028Z,81.43
2022-08-25T04:34:29.741Z,81.28
2022-08-25T04:37:06.429Z,81.55
2022-08-25T04:39:38.358Z,81.60
2022-08-25T04:42:10.512Z,81.31
2022-08-25T04:44:43.378Z,81.60
2022-08-25T04:47:15.181Z,81.37
2022-08-25T04:49:47.529Z,81.07
2022-08-25T04:52:19.641Z,81.06
2022-08-25T04:54:51.548Z,81.26
2022-08-25T04:57:23.436Z,81.00
2022-08-25T04:59:55.780Z,80.85
2022-08-25T05:02:28.052Z,81.10
2022-08-25T05:05:00.937Z,81.23
2022-08-25T05:07:32.841Z,80.73
2022-08-25T05:10:05.073Z,81.31
2022-08-25T05:12:36.885Z,81.31
2022-08-25T05:15:25.621Z,81.21
2022-08-25T05:17:57.854Z,81.45
2022-08-25T05:20:32.799Z,81.16
2022-08-25T05:23:04.756Z,81.09
2022-08-25T05:25:38.078Z,80.97
2022-08-25T05:28:10.096Z,81.12
2022-08-25T05:30:46.224Z,80.86
2022-08-25T05:33:18.549Z,80.84
2022-08-25T05:35:50.511Z,80.86
2022-08-25T05:38:23.215Z,80.82
2022-08-25T05:41:01.852Z,80.54
2022-08-25T05:43:34.702Z,80.22
2022-08-25T05:46:07.507Z,79.71
2022-08-25T05:48:40.161Z,79.29
2022-08-25T05:51:13.426Z,79.07
2022-08-25T05:53:47.360Z,78.78
2022-08-25T05:56:19.939Z,78.69
2022-08-25T05:58:52.089Z,78.67
2022-08-25T06:01:47.258Z,78.52
2022-08-25T06:04:21.059Z,78.45
2022-08-25T06:06:55.041Z,78.21
2022-08-25T06:09:27.106Z,78.24
2022-08-25T06:12:01.299Z,78.30
2022-08-25T06:14:33.711Z,78.40
2022-08-25T06:17:05.921Z,78.39
2022-08-25T06:19:38.176Z,78.36
2022-08-25T06:22:13.288Z,78.39
2022-08-25T06:24:45.219Z,77.84
2022-08-25T06:27:17.761Z,76.93
2022-08-25T06:29:50.010Z,76.98
2022-08-25T06:32:27.051Z,77.37
2022-08-25T06:34:59.183Z,76.94
2022-08-25T06:37:32.090Z,77.21
2022-08-25T06:40:05.286Z,77.07
2022-08-25T06:42:39.757Z,76.43
2022-08-25T06:45:13.101Z,75.63
2022-08-25T06:47:46.635Z,74.46
2022-08-25T06:50:18.578Z,73.11
2022-08-25T06:52:51.892Z,72.80
2022-08-25T06:55:23.960Z,73.35
2022-08-25T06:57:56.707Z,71.86
2022-08-25T07:00:30.636Z,72.28
2022-08-25T07:03:05.069Z,71.61
2022-08-25T07:05:43.811Z,72.16
2022-08-25T07:08:16.083Z,71.63
2022-08-25T07:10:48.474Z,69.90
2022-08-25T07:13:21.239Z,70.78
2022-08-25T07:15:56.346Z,70.19
2022-08-25T07:18:28.340Z,70.08
2022-08-25T07:21:00.484Z,70.34
2022-08-25T07:23:32.429Z,70.57
2022-08-25T07:26:36.321Z,69.62
2022-08-25T07:29:08.649Z,69.12
2022-08-25T07:31:40.894Z,68.84
2022-08-25T07:34:31.399Z,67.39
2022-08-25T07:37:05.169Z,68.56
2022-08-25T07:39:37.478Z,68.06
2022-08-25T07:42:12.251Z,67.49
2022-08-25T07:44:44.247Z,67.55
2022-08-25T07:47:16.924Z,66.34
2022-08-25T07:49:55.153Z,67.33
2022-08-25T07:52:27.096Z,66.62
2022-08-25T07:54:58.938Z,65.89
2022-08-25T07:57:31.142Z,67.26
2022-08-25T08:00:03.168Z,65.95
2022-08-25T08:02:40.565Z,66.42
2022-08-25T08:05:15.087Z,65.75
2022-08-25T08:07:47.080Z,65.28
2022-08-25T08:13:18.635Z,64.91
2022-08-25T08:15:51.131Z,65.53
2022-08-25T08:18:24.556Z,64.51
2022-08-25T08:20:58.388Z,65.16
2022-08-25T08:23:31.507Z,64.80
2022-08-25T08:26:03.557Z,65.05
2022-08-25T08:28:36.356Z,66.07
2022-08-25T08:31:10.569Z,65.27
2022-08-25T08:33:42.784Z,63.55
2022-08-25T08:36:15.159Z,63.57
2022-08-25T08:38:47.914Z,62.56
2022-08-25T08:42:17.263Z,62.19
2022-08-25T08:45:17.429Z,63.10
2022-08-25T08:48:02.028Z,63.38
2022-08-25T08:50:45.670Z,63.70
2022-08-25T08:53:25.999Z,63.09
2022-08-25T08:56:02.408Z,62.45
2022-08-25T08:58:44.030Z,62.20
2022-08-25T09:01:20.369Z,62.95
2022-08-25T09:03:59.141Z,62.73
2022-08-25T09:06:39.156Z,62.69
2022-08-25T09:09:13.362Z,62.64
2022-08-25T09:12:01.049Z,62.21
2022-08-25T09:14:46.992Z,62.01
2022-08-25T09:17:42.994Z,62.00
2022-08-25T09:20:54.477Z,61.96
2022-08-25T09:23:41.102Z,62.82
2022-08-25T09:26:27.464Z,61.99
2022-08-25T09:29:07.443Z,62.14
2022-08-25T09:31:51.827Z,62.04
2022-08-25T09:34:27.350Z,62.07
2022-08-25T09:37:08.478Z,60.80
2022-08-25T09:39:42.143Z,59.73
2022-08-25T09:42:14.032Z,60.64
2022-08-25T09:44:48.435Z,59.65
2022-08-25T09:47:23.391Z,59.29
2022-08-25T09:50:01.103Z,59.76
2022-08-25T09:52:38.546Z,59.85
2022-08-25T09:55:24.527Z,59.69
2022-08-25T09:57:58.455Z,60.08
2022-08-25T10:00:33.710Z,58.31
2022-08-25T10:03:15.904Z,58.39
2022-08-25T10:06:05.763Z,57.14
2022-08-25T10:08:40.384Z,57.36
2022-08-25T10:11:15.443Z,55.92
2022-08-25T10:13:51.489Z,57.12
2022-08-25T10:16:33.621Z,57.00
2022-08-25T10:19:11.207Z,56.49
2022-08-25T10:21:44.859Z,56.79
2022-08-25T10:24:17.055Z,57.16
2022-08-25T10:27:02.293Z,57.61
2022-08-25T10:29:50.828Z,55.89
2022-08-25T10:32:35.128Z,56.61
2022-08-25T10:35:13.327Z,56.79
2022-08-25T10:37:58.285Z,56.19
2022-08-25T10:40:43.794Z,56.47
2022-08-25T10:43:26.523Z,56.89
2022-08-25T10:46:12.275Z,57.04
2022-08-25T10:48:59.368Z,57.44
2022-08-25T10:51:51.101Z,56.42
2022-08-25T10:54:39.999Z,54.58
2022-08-25T10:57:22.514Z,53.77
2022-08-25T11:00:10.361Z,55.35
2022-08-25T11:03:01.360Z,55.40
2022-08-25T11:05:37.479Z,54.63
2022-08-25T11:08:15.626Z,54.82
2022-08-25T11:10:53.085Z,54.28
2022-08-25T11:13:34.297Z,54.81
2022-08-25T11:16:17.527Z,54.67
2022-08-25T11:18:57.440Z,54.06
2022-08-25T11:21:39.937Z,53.19
2022-08-25T11:24:32.175Z,53.02
2022-08-25T11:27:15.899Z,51.98
2022-08-25T11:30:00.096Z,52.95
2022-08-25T11:32:36.052Z,53.02
2022-08-25T11:35:13.514Z,52.55
2022-08-25T11:37:58.868Z,52.46
2022-08-25T11:40:51.377Z,52.85
2022-08-25T11:43:40.972Z,52.81
2022-08-25T11:46:27.848Z,52.35
2022-08-25T11:49:31.744Z,53.64
2022-08-25T11:52:04.498Z,52.87
2022-08-25T11:54:43.938Z,53.04
2022-08-25T11:58:40.618Z,54.22
2022-08-25T12:01:53.488Z,53.71
2022-08-25T12:04:44.813Z,52.88
2022-08-25T12:08:12.531Z,51.79
2022-08-25T12:11:16.084Z,52.41
2022-08-25T12:13:50.834Z,51.75
2022-08-25T12:16:44.520Z,52.45
2022-08-25T12:19:49.689Z,51.92
2022-08-25T12:22:55.437Z,52.23
2022-08-25T12:25:52.052Z,52.26
2022-08-25T12:28:47.229Z,52.61
2022-08-25T12:31:48.684Z,51.60
2022-08-25T12:38:52.045Z,52.69
2022-08-25T12:45:45.423Z,52.91
2022-08-25T12:48:43.440Z,52.86
2022-08-25T12:51:21.499Z,52.30
2022-08-25T12:53:58.494Z,51.67
2022-08-25T12:56:47.692Z,50.83
2022-08-25T12:59:24.037Z,50.59
2022-08-25T13:02:23.398Z,50.24
2022-08-25T13:05:28.298Z,51.18
2022-08-25T13:08:37.515Z,51.07
2022-08-25T13:11:23.131Z,50.20
2022-08-25T13:14:00.480Z,50.70
2022-08-25T13:16:33.955Z,51.51
2022-08-25T13:19:19.365Z,51.86
2022-08-25T13:21:54.610Z,51.75
2022-08-25T13:24:29.768Z,51.69
2022-08-25T13:27:04.493Z,51.40
2022-08-25T13:29:40.881Z,51.71
2022-08-25T13:32:17.635Z,51.09
2022-08-25T13:34:52.595Z,51.62
2022-08-25T13:37:31.337Z,51.50
2022-08-25T13:40:18.011Z,51.59
2022-08-25T13:42:56.085Z,51.66
2022-08-25T13:45:32.527Z,51.88
2022-08-25T13:48:22.628Z,51.84
2022-08-25T13:51:07.432Z,51.79
2022-08-25T13:53:41.747Z,51.84
2022-08-25T13:56:24.030Z,51.22
2022-08-25T13:59:00.273Z,51.28
2022-08-25T14:01:48.803Z,51.33
2022-08-25T14:04:29.641Z,51.20
2022-08-25T14:07:19.570Z,50.60
2022-08-25T14:09:55.154Z,50.02
2022-08-25T14:12:44.784Z,50.14
2022-08-25T14:15:33.397Z,50.59
2022-08-25T14:18:08.896Z,50.69
2022-08-25T14:20:50.541Z,50.75
2022-08-25T14:23:26.672Z,50.88
2022-08-25T14:26:03.633Z,51.22
2022-08-25T14:28:43.452Z,51.80
2022-08-25T14:31:20.092Z,52.35
2022-08-25T14:33:56.525Z,52.90
2022-08-25T14:36:30.290Z,52.85
2022-08-25T14:39:05.994Z,52.87
2022-08-25T14:41:47.362Z,52.21
2022-08-25T14:44:25.317Z,51.78
2022-08-25T14:46:59.875Z,51.94
2022-08-25T14:49:34.884Z,51.78
2022-08-25T14:52:12.285Z,51.34
2022-08-25T14:54:44.958Z,51.32
2022-08-25T14:57:18.405Z,50.55
2022-08-25T14:59:50.414Z,50.37
2022-08-25T15:02:29.643Z,50.48
2022-08-25T15:05:05.989Z,50.47
2022-08-25T15:07:55.670Z,50.89
2022-08-25T15:10:27.668Z,51.26
2022-08-25T15:12:59.670Z,51.77
2022-08-25T15:15:33.042Z,51.99
2022-08-25T15:18:05.707Z,52.30
2022-08-25T15:20:38.207Z,52.58
2022-08-25T15:23:10.853Z,52.88
2022-08-25T15:25:52.996Z,52.63
2022-08-25T15:28:26.627Z,52.88
2022-08-25T15:30:58.480Z,52.91
2022-08-25T15:33:31.228Z,53.24
2022-08-25T15:36:03.321Z,52.58
2022-08-25T15:38:35.154Z,52.71
2022-08-25T15:41:08.421Z,53.03
2022-08-25T15:43:43.286Z,52.64
2022-08-25T15:46:20.260Z,52.81
2022-08-25T15:48:52.388Z,52.54
2022-08-25T15:51:24.175Z,52.88
2022-08-25T15:53:55.963Z,52.54
2022-08-25T15:56:27.882Z,52.51
2022-08-25T15:58:59.847Z,52.97
2022-08-25T16:01:31.737Z,53.02
2022-08-25T16:04:03.717Z,53.45
2022-08-25T16:06:35.695Z,53.62
2022-08-25T16:09:08.706Z,53.83
2022-08-25T16:11:43.199Z,53.77
2022-08-25T16:14:15.245Z,54.20
2022-08-25T16:16:47.741Z,54.48
2022-08-25T16:19:19.661Z,54.81
2022-08-25T16:21:51.482Z,54.88
2022-08-25T16:24:23.330Z,55.17
2022-08-25T16:27:00.325Z,55.47
2022-08-25T16:29:45.709Z,55.67
2022-08-25T16:32:19.247Z,55.72
2022-08-25T16:34:51.026Z,55.61
2022-08-25T16:37:23.128Z,55.83
2022-08-25T16:39:57.126Z,56.04
2022-08-25T16:42:30.018Z,56.86
2022-08-25T16:45:02.204Z,56.73
2022-08-25T16:47:40.018Z,56.84
2022-08-25T16:50:19.408Z,56.88
2022-08-25T16:53:09.950Z,57.22
2022-08-25T16:55:41.978Z,57.25
2022-08-25T16:58:16.527Z,57.11
2022-08-25T17:00:51.627Z,57.33
2022-08-25T17:03:27.088Z,57.64
2022-08-25T17:06:01.642Z,57.40
2022-08-25T17:08:33.911Z,57.65
2022-08-25T17:11:14.167Z,57.74
2022-08-25T17:13:49.727Z,57.94
2022-08-25T17:16:24.895Z,57.98
2022-08-25T17:18:57.611Z,58.30
2022-08-25T17:21:33.185Z,58.58
2022-08-25T17:24:06.655Z,58.65
2022-08-25T17:26:41.175Z,58.70
2022-08-25T17:29:13.340Z,58.79
2022-08-25T17:31:48.497Z,58.75
2022-08-25T17:34:23.253Z,59.09
2022-08-25T17:36:55.713Z,59.38
2022-08-25T17:39:28.633Z,59.54
2022-08-25T17:42:02.664Z,59.85
2022-08-25T17:44:34.528Z,59.69
2022-08-25T17:47:10.147Z,59.69
2022-08-25T17:49:42.059Z,59.91
2022-08-25T17:52:15.687Z,59.96
2022-08-25T17:54:47.564Z,60.23
2022-08-25T17:57:20.593Z,60.24
2022-08-25T17:59:55.225Z,60.54
2022-08-25T18:02:28.330Z,60.54
2022-08-25T18:05:00.794Z,60.93
2022-08-25T18:07:32.839Z,60.94
2022-08-25T18:10:05.611Z,61.40
2022-08-25T18:12:41.178Z,61.41
2022-08-25T18:15:16.010Z,61.25
2022-08-25T18:17:48.216Z,61.35
2022-08-25T18:20:21.771Z,61.43
2022-08-25T18:22:55.485Z,61.57
2022-08-25T18:25:30.968Z,61.58
2022-08-25T18:28:03.237Z,61.58
2022-08-25T18:30:35.232Z,61.90
2022-08-25T18:33:08.198Z,61.94
2022-08-25T18:35:40.488Z,61.84
2022-08-25T18:38:31.129Z,62.07
2022-08-25T18:41:06.444Z,62.25
2022-08-25T18:43:38.804Z,62.44
2022-08-25T18:46:12.163Z,62.44
2022-08-25T18:48:45.885Z,62.59
2022-08-25T18:51:18.345Z,62.59
2022-08-25T18:54:00.902Z,62.88
2022-08-25T18:56:34.678Z,63.00
2022-08-25T18:59:09.189Z,63.15
2022-08-25T19:01:44.854Z,63.33
2022-08-25T19:04:17.546Z,63.36
2022-08-25T19:06:49.428Z,63.35
2022-08-25T19:09:23.836Z,63.63
2022-08-25T19:11:55.836Z,63.91
2022-08-25T19:14:27.927Z,63.94
2022-08-25T19:17:01.029Z,64.25
2022-08-25T19:19:33.208Z,64.31
2022-08-25T19:22:08.509Z,64.36
2022-08-25T19:24:49.136Z,64.55
2022-08-25T19:27:21.694Z,64.73
2022-08-25T19:29:54.029Z,64.89
2022-08-25T19:32:26.509Z,64.92
2022-08-25T19:35:00.485Z,65.11
2022-08-25T19:37:32.683Z,65.36
2022-08-25T19:40:11.732Z,65.43
2022-08-25T19:42:43.858Z,65.50
2022-08-25T19:45:16.769Z,65.61
2022-08-25T19:47:49.530Z,65.87
2022-08-25T19:50:25.844Z,66.01
2022-08-25T19:52:58.213Z,66.03
2022-08-25T19:55:30.291Z,66.16
2022-08-25T19:58:03.055Z,66.22
2022-08-25T20:00:40.545Z,66.45
2022-08-25T20:03:12.787Z,66.49
2022-08-25T20:05:45.096Z,66.57
2022-08-25T20:08:17.838Z,66.55
2022-08-25T20:11:02.887Z,66.73
2022-08-25T20:13:34.693Z,66.85
2022-08-25T20:16:07.825Z,66.94
2022-08-25T20:18:39.977Z,67.03
2022-08-25T20:21:12.959Z,67.14
2022-08-25T20:24:02.841Z,67.23
2022-08-25T20:26:35.019Z,67.34
2022-08-25T20:29:06.960Z,67.43
2022-08-25T20:31:39.884Z,67.74
2022-08-25T20:34:11.796Z,67.70
2022-08-25T20:36:50.251Z,67.86
2022-08-25T20:39:22.925Z,68.07
2022-08-25T20:41:54.955Z,67.99
2022-08-25T20:44:33.684Z,68.03
2022-08-25T20:47:10.291Z,68.06
2022-08-25T20:49:43.832Z,68.16
2022-08-25T20:52:16.889Z,68.25
2022-08-25T20:54:51.047Z,68.51
2022-08-25T20:57:26.178Z,68.74
2022-08-25T21:00:00.195Z,68.82
2022-08-25T21:02:33.079Z,68.83
2022-08-25T21:05:09.026Z,68.90
2022-08-25T21:07:41.558Z,69.00
2022-08-25T21:10:15.504Z,68.98
2022-08-25T21:12:53.284Z,69.03
2022-08-25T21:15:25.474Z,68.95
2022-08-25T21:17:57.695Z,68.99
2022-08-25T21:20:29.600Z,69.13
2022-08-25T21:23:03.172Z,69.03
2022-08-25T21:25:42.710Z,69.17
2022-08-25T21:28:15.121Z,69.14
2022-08-25T21:30:47.422Z,69.17
2022-08-25T21:33:19.420Z,69.13
2022-08-25T21:35:58.080Z,69.32
2022-08-25T21:38:30.331Z,69.48
2022-08-25T21:41:08.557Z,69.59
2022-08-25T21:43:41.523Z,69.80
2022-08-25T21:46:20.263Z,69.82
2022-08-25T21:48:53.096Z,69.86
2022-08-25T21:51:27.191Z,69.88
2022-08-25T21:54:11.140Z,69.89
2022-08-25T21:56:47.857Z,69.92
2022-08-25T21:59:22.378Z,69.89
2022-08-25T22:01:57.478Z,69.97
2022-08-25T22:04:31.219Z,69.95
2022-08-25T22:07:03.411Z,70.22
2022-08-25T22:09:35.586Z,70.22
2022-08-25T22:12:10.158Z,70.23
2022-08-25T22:14:42.849Z,70.26
2022-08-25T22:17:17.056Z,70.32
2022-08-25T22:19:53.769Z,70.38
2022-08-25T22:22:25.981Z,70.38
2022-08-25T22:24:58.776Z,70.59
2022-08-25T22:27:31.858Z,70.59
2022-08-25T22:30:11.466Z,70.80
2022-08-25T22:32:45.383Z,70.82
2022-08-25T22:35:17.525Z,70.85
2022-08-25T22:37:51.483Z,70.89
2022-08-25T22:40:30.108Z,70.92
2022-08-25T22:43:01.932Z,70.99
2022-08-25T22:45:34.061Z,71.17
2022-08-25T22:48:07.326Z,71.03
2022-08-25T22:50:43.157Z,71.16
2022-08-25T22:53:18.565Z,71.27
2022-08-25T22:55:52.162Z,71.30
2022-08-25T22:58:31.026Z,71.38
2022-08-25T23:01:05.153Z,71.38
2022-08-25T23:03:37.068Z,71.50
2022-08-25T23:06:25.023Z,71.57
2022-08-25T23:08:58.597Z,71.59
2022-08-25T23:11:31.373Z,71.64
2022-08-25T23:14:05.679Z,71.61
2022-08-25T23:16:38.044Z,71.52
2022-08-25T23:19:10.635Z,71.61
2022-08-25T23:22:00.964Z,71.66
2022-08-25T23:24:33.460Z,71.68
2022-08-25T23:27:08.616Z,71.78
2022-08-25T23:29:42.906Z,71.67
2022-08-25T23:32:17.515Z,71.76
2022-08-25T23:34:50.170Z,71.85
2022-08-25T23:37:21.980Z,71.79
2022-08-25T23:39:54.409Z,71.76
2022-08-25T23:42:27.329Z,71.78
2022-08-25T23:44:59.120Z,71.70
2022-08-25T23:47:31.084Z,71.67
2022-08-25T23:50:03.088Z,71.63
2022-08-25T23:52:37.590Z,71.73
2022-08-25T23:55:11.660Z,71.86
2022-08-25T23:57:43.574Z,71.81
